Terminal Aerodrome Forecast
Issued by NWS

Home | Current Version | Previous Version | Text Only | Print | Product List | Glossary On
Versions: 1 2 3 4 5 6 7 8 9 10 11 12 13 14 15 16
000
FTUS45 KTFX 260400 AAA
TAFBZN
TAF AMD
KBZN 260409Z 2604/2624 VRB04KT 6SM BR FEW010
      TEMPO 2604/2607 2SM BR SCT005
     FM260700 VRB04KT P6SM SCT060 BKN100
     FM261000 VRB06KT P6SM VCSH SCT025 BKN040=

USA.gov is the U.S. government's official web portal to all federal, state and local government web resources and services.